VYYY/RGN METAR and TAF weather

Enter ICAO airport designator
Station Type Date Time Source
VYYY METAR 2018/12/13 22:00 UTC NOAA

VYYY 132200Z 04004KT 6000 NSC 23/21 Q1013


Station Type Date Time Source
VYYY Decoded METAR 2018/12/13 22:00 UTC NOAA

Yangon, Myanmar (VYYY) 16-46N 096-10E 15M
Dec 13, 2018 - 05:00 PM EST / 2018.12.13 2200 UTC
Wind: from the NE (040 degrees) at 5 MPH (4 KT):0
Visibility: 3 mile(s):0
Temperature: 73 F (23 C)
Dew Point: 69 F (21 C)
Relative Humidity: 88%
Pressure (altimeter): 29.91 in. Hg (1013 hPa)
ob: VYYY 132200Z 04004KT 6000 NSC 23/21 Q1013
cycle: 22

Station Type Date Time Source
VYYY TAF 2018/12/13 18:39 UTC NOAA

TAF VYYY 131700Z 1318/1418 06005KT 7000 FEW020 SCT120
TEMPO 1318/1324 04006KT 6000 SCT018 FEW020CB BKN110


Example: see airport list